sensor_id;sensor_type;location;lat;lon;timestamp;temperature;humidity
32522;DHT22;18963;51.504;5.316;2023-02-15T00:01:32;0.40;99.90
32522;DHT22;18963;51.504;5.316;2023-02-15T00:03:58;0.30;99.90
32522;DHT22;18963;51.504;5.316;2023-02-15T00:06:24;0.20;99.90
32522;DHT22;18963;51.504;5.316;2023-02-15T00:08:49;0.20;99.90
32522;DHT22;18963;51.504;5.316;2023-02-15T00:11:16;0.10;99.90
32522;DHT22;18963;51.504;5.316;2023-02-15T00:14:03;0.10;99.90
32522;DHT22;18963;51.504;5.316;2023-02-15T00:16:28;0.10;99.90
32522;DHT22;18963;51.504;5.316;2023-02-15T00:18:54;0.20;99.90
32522;DHT22;18963;51.504;5.316;2023-02-15T00:21:19;0.30;99.90
32522;DHT22;18963;51.504;5.316;2023-02-15T00:23:45;0.30;99.90
32522;DHT22;18963;51.504;5.316;2023-02-15T00:26:10;0.30;99.90
32522;DHT22;18963;51.504;5.316;2023-02-15T00:28:36;0.30;99.90
32522;DHT22;18963;51.504;5.316;2023-02-15T00:31:05;0.30;99.90
32522;DHT22;18963;51.504;5.316;2023-02-15T00:33:31;0.20;99.90
32522;DHT22;18963;51.504;5.316;2023-02-15T00:36:00;0.20;99.90
32522;DHT22;18963;51.504;5.316;2023-02-15T00:38:29;0.10;99.90
32522;DHT22;18963;51.504;5.316;2023-02-15T00:40:55;0.10;99.90
32522;DHT22;18963;51.504;5.316;2023-02-15T00:43:21;0.10;99.90
32522;DHT22;18963;51.504;5.316;2023-02-15T00:45:46;0.10;99.90
32522;DHT22;18963;51.504;5.316;2023-02-15T00:48:12;0.10;99.90
32522;DHT22;18963;51.504;5.316;2023-02-15T00:50:37;0.10;99.90
32522;DHT22;18963;51.504;5.316;2023-02-15T00:53:03;0.10;99.90
32522;DHT22;18963;51.504;5.316;2023-02-15T00:55:28;0.10;99.90
32522;DHT22;18963;51.504;5.316;2023-02-15T00:57:54;0.20;99.90
32522;DHT22;18963;51.504;5.316;2023-02-15T01:00:19;0.20;99.90
32522;DHT22;18963;51.504;5.316;2023-02-15T01:02:45;0.20;99.90
32522;DHT22;18963;51.504;5.316;2023-02-15T01:05:10;0.20;99.90
32522;DHT22;18963;51.504;5.316;2023-02-15T01:07:35;0.10;99.90
32522;DHT22;18963;51.504;5.316;2023-02-15T01:10:01;0.10;99.90
32522;DHT22;18963;51.504;5.316;2023-02-15T01:12:26;0.00;99.90
32522;DHT22;18963;51.504;5.316;2023-02-15T01:14:52;0.00;99.90
32522;DHT22;18963;51.504;5.316;2023-02-15T01:17:17;-0.10;99.90
32522;DHT22;18963;51.504;5.316;2023-02-15T01:19:43;-0.10;99.90
32522;DHT22;18963;51.504;5.316;2023-02-15T01:22:08;-0.10;99.90
32522;DHT22;18963;51.504;5.316;2023-02-15T01:24:34;-0.10;99.90
32522;DHT22;18963;51.504;5.316;2023-02-15T01:26:59;-0.10;99.90
32522;DHT22;18963;51.504;5.316;2023-02-15T01:29:25;0.00;99.90
32522;DHT22;18963;51.504;5.316;2023-02-15T01:31:50;0.00;99.90
32522;DHT22;18963;51.504;5.316;2023-02-15T01:34:16;0.00;99.90
32522;DHT22;18963;51.504;5.316;2023-02-15T01:36:41;0.00;99.90
32522;DHT22;18963;51.504;5.316;2023-02-15T01:39:07;-0.10;99.90
32522;DHT22;18963;51.504;5.316;2023-02-15T01:41:33;-0.10;99.90
32522;DHT22;18963;51.504;5.316;2023-02-15T01:43:59;-0.10;99.90
32522;DHT22;18963;51.504;5.316;2023-02-15T01:46:38;-0.10;99.90
32522;DHT22;18963;51.504;5.316;2023-02-15T01:49:11;-0.20;99.90
32522;DHT22;18963;51.504;5.316;2023-02-15T01:51:38;-0.20;99.90
32522;DHT22;18963;51.504;5.316;2023-02-15T01:54:08;-0.30;99.90
32522;DHT22;18963;51.504;5.316;2023-02-15T01:56:37;-0.30;99.90
32522;DHT22;18963;51.504;5.316;2023-02-15T01:59:05;-0.30;99.90
32522;DHT22;18963;51.504;5.316;2023-02-15T02:01:31;-0.40;99.90
32522;DHT22;18963;51.504;5.316;2023-02-15T02:06:28;-0.30;99.90
32522;DHT22;18963;51.504;5.316;2023-02-15T02:08:54;-0.30;99.90
32522;DHT22;18963;51.504;5.316;2023-02-15T02:11:20;-0.30;99.90
32522;DHT22;18963;51.504;5.316;2023-02-15T02:13:45;-0.30;99.90
32522;DHT22;18963;51.504;5.316;2023-02-15T02:16:20;-0.30;99.90
32522;DHT22;18963;51.504;5.316;2023-02-15T02:27:18;-0.30;99.90
32522;DHT22;18963;51.504;5.316;2023-02-15T02:34:50;-0.40;99.90
32522;DHT22;18963;51.504;5.316;2023-02-15T02:37:30;-0.40;99.90
32522;DHT22;18963;51.504;5.316;2023-02-15T02:40:03;-0.40;99.90
32522;DHT22;18963;51.504;5.316;2023-02-15T02:42:35;-0.40;99.90
32522;DHT22;18963;51.504;5.316;2023-02-15T02:47:31;-0.40;99.90
32522;DHT22;18963;51.504;5.316;2023-02-15T02:50:00;-0.40;99.90
32522;DHT22;18963;51.504;5.316;2023-02-15T02:52:34;-0.50;99.90
32522;DHT22;18963;51.504;5.316;2023-02-15T02:55:00;-0.50;99.90
32522;DHT22;18963;51.504;5.316;2023-02-15T02:57:26;-0.50;99.90
32522;DHT22;18963;51.504;5.316;2023-02-15T02:59:52;-0.50;99.90
32522;DHT22;18963;51.504;5.316;2023-02-15T03:02:24;-0.50;99.90
32522;DHT22;18963;51.504;5.316;2023-02-15T03:04:53;-0.50;99.90
32522;DHT22;18963;51.504;5.316;2023-02-15T03:07:24;-0.50;99.90
32522;DHT22;18963;51.504;5.316;2023-02-15T03:09:53;-0.50;99.90
32522;DHT22;18963;51.504;5.316;2023-02-15T03:12:20;-0.50;99.90
32522;DHT22;18963;51.504;5.316;2023-02-15T03:14:51;-0.50;99.90
32522;DHT22;18963;51.504;5.316;2023-02-15T03:17:18;-0.40;99.90
32522;DHT22;18963;51.504;5.316;2023-02-15T03:19:45;-0.40;99.90
32522;DHT22;18963;51.504;5.316;2023-02-15T03:24:41;-0.40;99.90
32522;DHT22;18963;51.504;5.316;2023-02-15T03:27:13;-0.40;99.90
32522;DHT22;18963;51.504;5.316;2023-02-15T03:29:42;-0.40;99.90
32522;DHT22;18963;51.504;5.316;2023-02-15T03:32:09;-0.40;99.90
32522;DHT22;18963;51.504;5.316;2023-02-15T03:34:36;-0.30;99.90
32522;DHT22;18963;51.504;5.316;2023-02-15T03:39:47;-0.30;99.90
32522;DHT22;18963;51.504;5.316;2023-02-15T03:42:30;-0.30;99.90
32522;DHT22;18963;51.504;5.316;2023-02-15T03:45:05;-0.30;99.90
32522;DHT22;18963;51.504;5.316;2023-02-15T03:47:35;-0.30;99.90
32522;DHT22;18963;51.504;5.316;2023-02-15T03:50:02;-0.40;99.90
32522;DHT22;18963;51.504;5.316;2023-02-15T03:52:49;-0.40;99.90
32522;DHT22;18963;51.504;5.316;2023-02-15T03:55:15;-0.40;99.90
32522;DHT22;18963;51.504;5.316;2023-02-15T03:57:40;-0.50;99.90
32522;DHT22;18963;51.504;5.316;2023-02-15T04:00:33;-0.40;99.90
32522;DHT22;18963;51.504;5.316;2023-02-15T04:05:45;-0.40;99.90
32522;DHT22;18963;51.504;5.316;2023-02-15T04:08:11;-0.50;99.90
32522;DHT22;18963;51.504;5.316;2023-02-15T04:10:37;-0.50;99.90
32522;DHT22;18963;51.504;5.316;2023-02-15T04:13:30;-0.50;99.90
32522;DHT22;18963;51.504;5.316;2023-02-15T04:15:55;-0.50;99.90
32522;DHT22;18963;51.504;5.316;2023-02-15T04:18:34;-0.60;99.90
32522;DHT22;18963;51.504;5.316;2023-02-15T04:21:19;-0.60;99.90
32522;DHT22;18963;51.504;5.316;2023-02-15T04:24:03;-0.60;99.90
32522;DHT22;18963;51.504;5.316;2023-02-15T04:26:47;-0.60;99.90
32522;DHT22;18963;51.504;5.316;2023-02-15T04:29:14;-0.60;99.90
32522;DHT22;18963;51.504;5.316;2023-02-15T04:31:40;-0.60;99.90
32522;DHT22;18963;51.504;5.316;2023-02-15T04:34:05;-0.60;99.90
32522;DHT22;18963;51.504;5.316;2023-02-15T04:36:31;-0.70;99.90
32522;DHT22;18963;51.504;5.316;2023-02-15T04:38:56;-0.60;99.90
32522;DHT22;18963;51.504;5.316;2023-02-15T04:41:22;-0.60;99.90
32522;DHT22;18963;51.504;5.316;2023-02-15T04:43:47;-0.60;99.90
32522;DHT22;18963;51.504;5.316;2023-02-15T04:46:13;-0.60;99.90
32522;DHT22;18963;51.504;5.316;2023-02-15T04:48:38;-0.60;99.90
32522;DHT22;18963;51.504;5.316;2023-02-15T04:51:07;-0.60;99.90
32522;DHT22;18963;51.504;5.316;2023-02-15T04:53:33;-0.60;99.90
32522;DHT22;18963;51.504;5.316;2023-02-15T04:55:58;-0.60;99.90
32522;DHT22;18963;51.504;5.316;2023-02-15T04:58:24;-0.60;99.90
32522;DHT22;18963;51.504;5.316;2023-02-15T05:00:49;-0.50;99.90
32522;DHT22;18963;51.504;5.316;2023-02-15T05:03:15;-0.50;99.90
32522;DHT22;18963;51.504;5.316;2023-02-15T05:05:40;-0.50;99.90
32522;DHT22;18963;51.504;5.316;2023-02-15T05:08:06;-0.40;99.90
32522;DHT22;18963;51.504;5.316;2023-02-15T05:10:31;-0.40;99.90
32522;DHT22;18963;51.504;5.316;2023-02-15T05:12:57;-0.30;99.90
32522;DHT22;18963;51.504;5.316;2023-02-15T05:15:22;-0.30;99.90
32522;DHT22;18963;51.504;5.316;2023-02-15T05:17:48;-0.30;99.90
32522;DHT22;18963;51.504;5.316;2023-02-15T05:20:13;-0.30;99.90
32522;DHT22;18963;51.504;5.316;2023-02-15T05:22:39;-0.30;99.90
32522;DHT22;18963;51.504;5.316;2023-02-15T05:25:06;-0.30;99.90
32522;DHT22;18963;51.504;5.316;2023-02-15T05:27:50;-0.30;99.90
32522;DHT22;18963;51.504;5.316;2023-02-15T05:30:34;-0.30;99.90
32522;DHT22;18963;51.504;5.316;2023-02-15T05:33:00;-0.30;99.90
32522;DHT22;18963;51.504;5.316;2023-02-15T05:35:25;-0.40;99.90
32522;DHT22;18963;51.504;5.316;2023-02-15T05:37:51;-0.50;99.90
32522;DHT22;18963;51.504;5.316;2023-02-15T05:40:16;-0.50;99.90
32522;DHT22;18963;51.504;5.316;2023-02-15T05:42:42;-0.60;99.90
32522;DHT22;18963;51.504;5.316;2023-02-15T05:45:07;-0.60;99.90
32522;DHT22;18963;51.504;5.316;2023-02-15T05:47:33;-0.70;99.90
32522;DHT22;18963;51.504;5.316;2023-02-15T05:49:59;-0.70;99.90
32522;DHT22;18963;51.504;5.316;2023-02-15T05:52:24;-0.90;99.90
32522;DHT22;18963;51.504;5.316;2023-02-15T05:54:50;-0.90;99.90
32522;DHT22;18963;51.504;5.316;2023-02-15T05:57:15;-1.10;99.90
32522;DHT22;18963;51.504;5.316;2023-02-15T05:59:41;-1.10;99.90
32522;DHT22;18963;51.504;5.316;2023-02-15T06:02:06;-1.10;99.90
32522;DHT22;18963;51.504;5.316;2023-02-15T06:04:32;-1.20;99.90
32522;DHT22;18963;51.504;5.316;2023-02-15T06:06:57;-1.10;99.90
32522;DHT22;18963;51.504;5.316;2023-02-15T06:09:23;-1.10;99.90
32522;DHT22;18963;51.504;5.316;2023-02-15T06:11:48;-1.00;99.90
32522;DHT22;18963;51.504;5.316;2023-02-15T06:14:14;-0.90;99.90
32522;DHT22;18963;51.504;5.316;2023-02-15T06:16:39;-0.80;99.90
32522;DHT22;18963;51.504;5.316;2023-02-15T06:19:07;-0.70;99.90
32522;DHT22;18963;51.504;5.316;2023-02-15T06:21:32;-0.60;99.90
32522;DHT22;18963;51.504;5.316;2023-02-15T06:23:58;-0.50;99.90
32522;DHT22;18963;51.504;5.316;2023-02-15T06:26:23;-0.50;99.90
32522;DHT22;18963;51.504;5.316;2023-02-15T06:28:49;-0.50;99.90
32522;DHT22;18963;51.504;5.316;2023-02-15T06:31:14;-0.50;99.90
32522;DHT22;18963;51.504;5.316;2023-02-15T06:33:40;-0.50;99.90
32522;DHT22;18963;51.504;5.316;2023-02-15T06:36:05;-0.50;99.90
32522;DHT22;18963;51.504;5.316;2023-02-15T06:38:31;-0.50;99.90
32522;DHT22;18963;51.504;5.316;2023-02-15T06:40:57;-0.50;99.90
32522;DHT22;18963;51.504;5.316;2023-02-15T06:43:22;-0.50;99.90
32522;DHT22;18963;51.504;5.316;2023-02-15T06:45:48;-0.40;99.90
32522;DHT22;18963;51.504;5.316;2023-02-15T06:48:13;-0.40;99.90
32522;DHT22;18963;51.504;5.316;2023-02-15T06:50:39;-0.40;99.90
32522;DHT22;18963;51.504;5.316;2023-02-15T06:53:04;-0.30;99.90
32522;DHT22;18963;51.504;5.316;2023-02-15T06:55:30;-0.20;99.90
32522;DHT22;18963;51.504;5.316;2023-02-15T06:57:55;-0.20;99.90
32522;DHT22;18963;51.504;5.316;2023-02-15T07:00:21;-0.10;99.90
32522;DHT22;18963;51.504;5.316;2023-02-15T07:02:52;0.00;99.90
32522;DHT22;18963;51.504;5.316;2023-02-15T07:05:20;0.00;99.90
32522;DHT22;18963;51.504;5.316;2023-02-15T07:07:46;0.10;99.90
32522;DHT22;18963;51.504;5.316;2023-02-15T07:10:11;0.20;99.90
32522;DHT22;18963;51.504;5.316;2023-02-15T07:12:37;0.20;99.90
32522;DHT22;18963;51.504;5.316;2023-02-15T07:15:14;0.20;99.90
32522;DHT22;18963;51.504;5.316;2023-02-15T07:17:40;0.20;99.90
32522;DHT22;18963;51.504;5.316;2023-02-15T07:20:07;0.30;99.90
32522;DHT22;18963;51.504;5.316;2023-02-15T07:22:33;0.30;99.90
32522;DHT22;18963;51.504;5.316;2023-02-15T07:24:59;0.40;99.90
32522;DHT22;18963;51.504;5.316;2023-02-15T07:27:24;0.40;99.90
32522;DHT22;18963;51.504;5.316;2023-02-15T07:29:50;0.40;99.90
32522;DHT22;18963;51.504;5.316;2023-02-15T07:32:15;0.40;99.90
32522;DHT22;18963;51.504;5.316;2023-02-15T07:34:41;0.50;99.90
32522;DHT22;18963;51.504;5.316;2023-02-15T07:37:06;0.50;99.90
32522;DHT22;18963;51.504;5.316;2023-02-15T07:39:32;0.60;99.90
32522;DHT22;18963;51.504;5.316;2023-02-15T07:41:57;0.70;99.90
32522;DHT22;18963;51.504;5.316;2023-02-15T07:44:24;0.70;99.90
32522;DHT22;18963;51.504;5.316;2023-02-15T07:46:50;0.80;99.90
32522;DHT22;18963;51.504;5.316;2023-02-15T07:49:15;0.90;99.90
32522;DHT22;18963;51.504;5.316;2023-02-15T07:51:41;1.00;99.90
32522;DHT22;18963;51.504;5.316;2023-02-15T07:54:06;1.00;99.90
32522;DHT22;18963;51.504;5.316;2023-02-15T07:56:32;1.10;99.90
32522;DHT22;18963;51.504;5.316;2023-02-15T07:58:58;1.20;99.90
32522;DHT22;18963;51.504;5.316;2023-02-15T08:03:51;1.40;99.90
32522;DHT22;18963;51.504;5.316;2023-02-15T08:06:17;1.50;99.90
32522;DHT22;18963;51.504;5.316;2023-02-15T08:08:43;1.60;99.90
32522;DHT22;18963;51.504;5.316;2023-02-15T08:14:13;1.90;99.90
32522;DHT22;18963;51.504;5.316;2023-02-15T08:21:33;2.30;99.90
32522;DHT22;18963;51.504;5.316;2023-02-15T08:23:59;2.40;99.90
32522;DHT22;18963;51.504;5.316;2023-02-15T08:26:25;2.60;99.90
32522;DHT22;18963;51.504;5.316;2023-02-15T08:28:51;2.60;99.90
32522;DHT22;18963;51.504;5.316;2023-02-15T08:31:16;2.80;99.90
32522;DHT22;18963;51.504;5.316;2023-02-15T08:33:43;2.90;99.90
32522;DHT22;18963;51.504;5.316;2023-02-15T08:36:13;3.10;99.90
32522;DHT22;18963;51.504;5.316;2023-02-15T08:38:39;3.20;99.90
32522;DHT22;18963;51.504;5.316;2023-02-15T08:41:09;3.40;99.90
32522;DHT22;18963;51.504;5.316;2023-02-15T08:43:34;3.60;99.90
32522;DHT22;18963;51.504;5.316;2023-02-15T08:46:00;3.70;99.90
32522;DHT22;18963;51.504;5.316;2023-02-15T08:48:25;3.80;99.90
32522;DHT22;18963;51.504;5.316;2023-02-15T08:50:51;4.00;99.90
32522;DHT22;18963;51.504;5.316;2023-02-15T08:53:16;4.10;99.90
32522;DHT22;18963;51.504;5.316;2023-02-15T08:55:45;4.20;99.90
32522;DHT22;18963;51.504;5.316;2023-02-15T08:58:11;4.20;99.90
32522;DHT22;18963;51.504;5.316;2023-02-15T09:00:37;4.40;99.90
32522;DHT22;18963;51.504;5.316;2023-02-15T09:03:03;4.50;99.90
32522;DHT22;18963;51.504;5.316;2023-02-15T09:05:28;4.60;99.90
32522;DHT22;18963;51.504;5.316;2023-02-15T09:07:54;4.60;99.90
32522;DHT22;18963;51.504;5.316;2023-02-15T09:10:19;4.80;99.90
32522;DHT22;18963;51.504;5.316;2023-02-15T09:12:45;4.90;99.90
32522;DHT22;18963;51.504;5.316;2023-02-15T09:15:11;5.00;99.90
32522;DHT22;18963;51.504;5.316;2023-02-15T09:17:36;5.20;99.90
32522;DHT22;18963;51.504;5.316;2023-02-15T09:20:02;5.40;99.90
32522;DHT22;18963;51.504;5.316;2023-02-15T09:22:27;5.70;99.90
32522;DHT22;18963;51.504;5.316;2023-02-15T09:24:55;5.90;99.90
32522;DHT22;18963;51.504;5.316;2023-02-15T09:27:20;6.10;99.90
32522;DHT22;18963;51.504;5.316;2023-02-15T09:29:46;6.30;99.90
32522;DHT22;18963;51.504;5.316;2023-02-15T09:32:13;6.50;99.90
32522;DHT22;18963;51.504;5.316;2023-02-15T09:34:38;6.80;99.90
32522;DHT22;18963;51.504;5.316;2023-02-15T09:37:04;7.00;99.90
32522;DHT22;18963;51.504;5.316;2023-02-15T09:39:30;7.20;99.90
32522;DHT22;18963;51.504;5.316;2023-02-15T09:42:10;7.40;99.90
32522;DHT22;18963;51.504;5.316;2023-02-15T09:49:42;8.00;99.90
32522;DHT22;18963;51.504;5.316;2023-02-15T09:57:19;8.80;99.90
32522;DHT22;18963;51.504;5.316;2023-02-15T09:59:56;9.00;99.90
32522;DHT22;18963;51.504;5.316;2023-02-15T10:21:43;10.80;99.90
32522;DHT22;18963;51.504;5.316;2023-02-15T10:26:46;11.10;99.90
32522;DHT22;18963;51.504;5.316;2023-02-15T10:34:38;11.70;99.90
32522;DHT22;18963;51.504;5.316;2023-02-15T10:42:23;12.30;99.90
32522;DHT22;18963;51.504;5.316;2023-02-15T10:47:30;12.70;99.90
32522;DHT22;18963;51.504;5.316;2023-02-15T10:55:18;13.40;99.90
32522;DHT22;18963;51.504;5.316;2023-02-15T11:00:18;13.60;99.90
32522;DHT22;18963;51.504;5.316;2023-02-15T11:03:00;13.70;99.90
32522;DHT22;18963;51.504;5.316;2023-02-15T11:05:35;13.80;99.90
32522;DHT22;18963;51.504;5.316;2023-02-15T11:08:03;13.80;99.70
32522;DHT22;18963;51.504;5.316;2023-02-15T11:10:48;13.90;99.90
32522;DHT22;18963;51.504;5.316;2023-02-15T11:13:17;13.80;99.90
32522;DHT22;18963;51.504;5.316;2023-02-15T11:15:51;13.90;99.90
32522;DHT22;18963;51.504;5.316;2023-02-15T11:20:58;14.00;99.90
32522;DHT22;18963;51.504;5.316;2023-02-15T11:23:25;14.10;99.90
32522;DHT22;18963;51.504;5.316;2023-02-15T11:26:12;14.30;99.90
32522;DHT22;18963;51.504;5.316;2023-02-15T11:28:40;14.50;99.90
32522;DHT22;18963;51.504;5.316;2023-02-15T11:31:12;14.70;99.90
32522;DHT22;18963;51.504;5.316;2023-02-15T11:33:39;15.10;99.20
32522;DHT22;18963;51.504;5.316;2023-02-15T11:36:13;15.40;98.60
32522;DHT22;18963;51.504;5.316;2023-02-15T11:38:39;15.80;99.30
32522;DHT22;18963;51.504;5.316;2023-02-15T11:41:16;16.30;96.30
32522;DHT22;18963;51.504;5.316;2023-02-15T11:43:46;16.70;91.80
32522;DHT22;18963;51.504;5.316;2023-02-15T11:46:14;17.20;92.10
32522;DHT22;18963;51.504;5.316;2023-02-15T11:48:40;17.50;88.80
32522;DHT22;18963;51.504;5.316;2023-02-15T11:51:11;17.60;84.50
32522;DHT22;18963;51.504;5.316;2023-02-15T11:53:38;17.70;85.60
32522;DHT22;18963;51.504;5.316;2023-02-15T11:56:04;17.60;85.40
32522;DHT22;18963;51.504;5.316;2023-02-15T11:58:41;17.20;83.60
32522;DHT22;18963;51.504;5.316;2023-02-15T12:01:54;17.10;87.30
32522;DHT22;18963;51.504;5.316;2023-02-15T12:03:55;16.90;87.50
32522;DHT22;18963;51.504;5.316;2023-02-15T12:06:26;16.50;89.70
32522;DHT22;18963;51.504;5.316;2023-02-15T12:08:57;16.30;85.90
32522;DHT22;18963;51.504;5.316;2023-02-15T12:11:28;16.00;88.80
32522;DHT22;18963;51.504;5.316;2023-02-15T12:13:59;15.80;91.60
32522;DHT22;18963;51.504;5.316;2023-02-15T12:16:25;15.70;92.30
32522;DHT22;18963;51.504;5.316;2023-02-15T12:18:52;15.50;92.20
32522;DHT22;18963;51.504;5.316;2023-02-15T12:23:51;15.10;93.00
32522;DHT22;18963;51.504;5.316;2023-02-15T12:26:27;14.80;92.40
32522;DHT22;18963;51.504;5.316;2023-02-15T12:28:53;14.70;94.10
32522;DHT22;18963;51.504;5.316;2023-02-15T12:31:20;14.50;94.60
32522;DHT22;18963;51.504;5.316;2023-02-15T12:33:47;14.30;94.20
32522;DHT22;18963;51.504;5.316;2023-02-15T12:36:21;14.20;97.20
32522;DHT22;18963;51.504;5.316;2023-02-15T12:39:04;14.20;97.00
32522;DHT22;18963;51.504;5.316;2023-02-15T12:41:30;14.00;96.60
32522;DHT22;18963;51.504;5.316;2023-02-15T12:46:39;13.90;97.60
32522;DHT22;18963;51.504;5.316;2023-02-15T12:49:38;13.80;97.60
32522;DHT22;18963;51.504;5.316;2023-02-15T12:52:01;13.70;96.60
32522;DHT22;18963;51.504;5.316;2023-02-15T12:57:01;13.70;99.20
32522;DHT22;18963;51.504;5.316;2023-02-15T12:59:37;13.70;98.10
32522;DHT22;18963;51.504;5.316;2023-02-15T13:02:15;13.70;97.90
32522;DHT22;18963;51.504;5.316;2023-02-15T13:04:49;13.60;97.60
32522;DHT22;18963;51.504;5.316;2023-02-15T13:07:15;13.50;98.40
32522;DHT22;18963;51.504;5.316;2023-02-15T13:09:40;13.50;97.40
32522;DHT22;18963;51.504;5.316;2023-02-15T13:12:22;13.40;99.20
32522;DHT22;18963;51.504;5.316;2023-02-15T13:14:49;13.40;99.60
32522;DHT22;18963;51.504;5.316;2023-02-15T13:17:27;13.40;98.20
32522;DHT22;18963;51.504;5.316;2023-02-15T13:19:54;13.40;98.70
32522;DHT22;18963;51.504;5.316;2023-02-15T13:22:35;13.40;98.80
32522;DHT22;18963;51.504;5.316;2023-02-15T13:25:09;13.30;98.70
32522;DHT22;18963;51.504;5.316;2023-02-15T13:27:38;13.20;99.70
32522;DHT22;18963;51.504;5.316;2023-02-15T13:30:10;13.20;99.90
32522;DHT22;18963;51.504;5.316;2023-02-15T13:32:38;13.20;99.90
32522;DHT22;18963;51.504;5.316;2023-02-15T13:35:10;13.10;99.80
32522;DHT22;18963;51.504;5.316;2023-02-15T13:40:24;13.00;99.90
32522;DHT22;18963;51.504;5.316;2023-02-15T13:47:45;12.90;99.90
32522;DHT22;18963;51.504;5.316;2023-02-15T13:50:33;12.90;99.90
32522;DHT22;18963;51.504;5.316;2023-02-15T13:55:37;12.80;99.90
32522;DHT22;18963;51.504;5.316;2023-02-15T13:58:19;12.90;99.90
32522;DHT22;18963;51.504;5.316;2023-02-15T14:10:46;13.00;99.90
32522;DHT22;18963;51.504;5.316;2023-02-15T14:13:28;13.00;99.90
32522;DHT22;18963;51.504;5.316;2023-02-15T14:18:37;12.90;99.90
32522;DHT22;18963;51.504;5.316;2023-02-15T14:23:52;12.80;99.90
32522;DHT22;18963;51.504;5.316;2023-02-15T14:28:49;12.60;99.90
32522;DHT22;18963;51.504;5.316;2023-02-15T14:31:16;12.60;99.90
32522;DHT22;18963;51.504;5.316;2023-02-15T14:33:50;12.50;99.90
32522;DHT22;18963;51.504;5.316;2023-02-15T14:36:18;12.50;99.90
32522;DHT22;18963;51.504;5.316;2023-02-15T14:38:56;12.40;99.90
32522;DHT22;18963;51.504;5.316;2023-02-15T14:44:32;12.40;99.90
32522;DHT22;18963;51.504;5.316;2023-02-15T14:47:09;12.40;99.90
32522;DHT22;18963;51.504;5.316;2023-02-15T14:49:36;12.40;99.90
32522;DHT22;18963;51.504;5.316;2023-02-15T14:52:03;12.40;99.90
32522;DHT22;18963;51.504;5.316;2023-02-15T15:04:41;12.20;99.90
32522;DHT22;18963;51.504;5.316;2023-02-15T15:07:12;12.20;99.90
32522;DHT22;18963;51.504;5.316;2023-02-15T15:09:40;12.10;99.90
32522;DHT22;18963;51.504;5.316;2023-02-15T15:12:52;12.10;99.90
32522;DHT22;18963;51.504;5.316;2023-02-15T15:14:53;12.10;99.90
32522;DHT22;18963;51.504;5.316;2023-02-15T15:22:30;12.00;99.90
32522;DHT22;18963;51.504;5.316;2023-02-15T15:35:36;11.70;99.90
32522;DHT22;18963;51.504;5.316;2023-02-15T15:43:51;11.60;99.90
32522;DHT22;18963;51.504;5.316;2023-02-15T15:46:25;11.50;99.90
32522;DHT22;18963;51.504;5.316;2023-02-15T15:48:59;11.50;99.90
32522;DHT22;18963;51.504;5.316;2023-02-15T15:51:30;11.40;99.90
32522;DHT22;18963;51.504;5.316;2023-02-15T15:53:56;11.30;99.90
32522;DHT22;18963;51.504;5.316;2023-02-15T15:56:33;11.30;99.90
32522;DHT22;18963;51.504;5.316;2023-02-15T15:59:01;11.20;99.90
32522;DHT22;18963;51.504;5.316;2023-02-15T16:01:28;11.10;99.90
32522;DHT22;18963;51.504;5.316;2023-02-15T16:03:56;11.00;99.90
32522;DHT22;18963;51.504;5.316;2023-02-15T16:06:32;10.90;99.90
32522;DHT22;18963;51.504;5.316;2023-02-15T16:09:09;10.90;99.90
32522;DHT22;18963;51.504;5.316;2023-02-15T16:11:34;10.80;99.90
32522;DHT22;18963;51.504;5.316;2023-02-15T16:14:00;10.70;99.90
32522;DHT22;18963;51.504;5.316;2023-02-15T16:16:27;10.60;99.90
32522;DHT22;18963;51.504;5.316;2023-02-15T16:18:53;10.50;99.90
32522;DHT22;18963;51.504;5.316;2023-02-15T16:21:21;10.50;99.90
32522;DHT22;18963;51.504;5.316;2023-02-15T16:29:00;10.20;99.90
32522;DHT22;18963;51.504;5.316;2023-02-15T16:31:26;10.20;99.90
32522;DHT22;18963;51.504;5.316;2023-02-15T16:33:52;10.10;99.90
32522;DHT22;18963;51.504;5.316;2023-02-15T16:36:25;10.00;99.90
32522;DHT22;18963;51.504;5.316;2023-02-15T16:41:17;9.80;99.90
32522;DHT22;18963;51.504;5.316;2023-02-15T16:43:45;9.70;99.90
32522;DHT22;18963;51.504;5.316;2023-02-15T16:46:16;9.60;99.90
32522;DHT22;18963;51.504;5.316;2023-02-15T16:48:44;9.50;99.90
32522;DHT22;18963;51.504;5.316;2023-02-15T16:51:14;9.40;99.90
32522;DHT22;18963;51.504;5.316;2023-02-15T16:53:43;9.30;99.90
32522;DHT22;18963;51.504;5.316;2023-02-15T16:56:11;9.30;99.90
32522;DHT22;18963;51.504;5.316;2023-02-15T17:01:02;9.10;99.90
32522;DHT22;18963;51.504;5.316;2023-02-15T17:03:31;9.00;99.90
32522;DHT22;18963;51.504;5.316;2023-02-15T17:06:00;8.90;99.90
32522;DHT22;18963;51.504;5.316;2023-02-15T17:08:33;8.80;99.90
32522;DHT22;18963;51.504;5.316;2023-02-15T17:13:25;8.60;99.90
32522;DHT22;18963;51.504;5.316;2023-02-15T17:18:20;8.50;99.90
32522;DHT22;18963;51.504;5.316;2023-02-15T17:20:47;8.40;99.90
32522;DHT22;18963;51.504;5.316;2023-02-15T17:23:32;8.30;99.90
32522;DHT22;18963;51.504;5.316;2023-02-15T17:26:00;8.20;99.90
32522;DHT22;18963;51.504;5.316;2023-02-15T17:28:29;8.10;99.90
32522;DHT22;18963;51.504;5.316;2023-02-15T17:30:55;8.00;99.90
32522;DHT22;18963;51.504;5.316;2023-02-15T17:36:03;7.80;99.90
32522;DHT22;18963;51.504;5.316;2023-02-15T17:38:30;7.80;99.90
32522;DHT22;18963;51.504;5.316;2023-02-15T17:40:56;7.70;99.90
32522;DHT22;18963;51.504;5.316;2023-02-15T17:43:24;7.70;99.90
32522;DHT22;18963;51.504;5.316;2023-02-15T17:45:49;7.60;99.90
32522;DHT22;18963;51.504;5.316;2023-02-15T17:51:05;7.50;99.90
32522;DHT22;18963;51.504;5.316;2023-02-15T17:53:31;7.40;99.90
32522;DHT22;18963;51.504;5.316;2023-02-15T17:55:57;7.40;99.90
32522;DHT22;18963;51.504;5.316;2023-02-15T17:58:22;7.40;99.90
32522;DHT22;18963;51.504;5.316;2023-02-15T18:00:52;7.30;99.90
32522;DHT22;18963;51.504;5.316;2023-02-15T18:03:39;7.20;99.90
32522;DHT22;18963;51.504;5.316;2023-02-15T18:06:24;7.20;99.90
32522;DHT22;18963;51.504;5.316;2023-02-15T18:09:19;7.10;99.90
32522;DHT22;18963;51.504;5.316;2023-02-15T18:12:20;7.00;99.90
32522;DHT22;18963;51.504;5.316;2023-02-15T18:14:45;6.90;99.90
32522;DHT22;18963;51.504;5.316;2023-02-15T18:17:15;6.80;99.90
32522;DHT22;18963;51.504;5.316;2023-02-15T18:19:41;6.70;99.90
32522;DHT22;18963;51.504;5.316;2023-02-15T18:22:11;6.60;99.90
32522;DHT22;18963;51.504;5.316;2023-02-15T18:24:37;6.50;99.90
32522;DHT22;18963;51.504;5.316;2023-02-15T18:27:03;6.40;99.90
32522;DHT22;18963;51.504;5.316;2023-02-15T18:29:28;6.30;99.90
32522;DHT22;18963;51.504;5.316;2023-02-15T18:31:54;6.20;99.90
32522;DHT22;18963;51.504;5.316;2023-02-15T18:34:31;6.10;99.90
32522;DHT22;18963;51.504;5.316;2023-02-15T18:36:57;6.00;99.90
32522;DHT22;18963;51.504;5.316;2023-02-15T18:39:42;6.00;99.90
32522;DHT22;18963;51.504;5.316;2023-02-15T18:44:52;5.90;99.90
32522;DHT22;18963;51.504;5.316;2023-02-15T18:47:19;5.90;99.90
32522;DHT22;18963;51.504;5.316;2023-02-15T18:49:44;5.90;99.90
32522;DHT22;18963;51.504;5.316;2023-02-15T18:52:14;5.80;99.90
32522;DHT22;18963;51.504;5.316;2023-02-15T18:54:40;5.80;99.90